Time;durP1;ratioP1;P1;durP2;ratioP2;P2;SDS_P1;SDS_P2;PMS_P1;PMS_P2;Temp;Humidity;BMP_temperature;BMP_pressure;BME280_temperature;BME280_humidity;BME280_pressure;Samples;Min_cycle;Max_cycle;Signal;HPM_P1;HPM_P2
2022/07/28 00:00:16;;;;;;;7.20;3.95;;;;;;;;;;5057244;28;20236;-57
2022/07/28 00:03:03;;;;;;;5.75;3.90;;;;;;;;;;5057844;28;20223;-54
2022/07/28 00:05:30;;;;;;;5.95;3.92;;;;;;;;;;5057726;28;20211;-55
2022/07/28 00:08:00;;;;;;;8.38;4.40;;;;;;;;;;5057055;28;20207;-51
2022/07/28 00:10:27;;;;;;;7.57;3.70;;;;;;;;;;5057221;28;20208;-50
2022/07/28 00:12:54;;;;;;;7.90;4.13;;;;;;;;;;5057018;28;20199;-52
2022/07/28 00:15:21;;;;;;;9.00;4.53;;;;;;;;;;5056906;28;20224;-55
2022/07/28 00:17:48;;;;;;;9.10;3.97;;;;;;;;;;5056992;28;20657;-52
2022/07/28 00:20:16;;;;;;;8.60;4.18;;;;;;;;;;5056983;28;20211;-51
2022/07/28 00:22:43;;;;;;;9.20;3.65;;;;;;;;;;5056952;28;20219;-51
2022/07/28 00:25:11;;;;;;;6.57;3.42;;;;;;;;;;5056802;28;20646;-55
2022/07/28 00:27:38;;;;;;;6.70;3.33;;;;;;;;;;5056806;28;20208;-53
2022/07/28 00:30:06;;;;;;;9.00;3.30;;;;;;;;;;5056982;28;20314;-53
2022/07/28 00:32:33;;;;;;;8.38;3.65;;;;;;;;;;5056616;28;20204;-53
2022/07/28 00:35:01;;;;;;;5.90;3.50;;;;;;;;;;5056534;28;20210;-55
2022/07/28 00:37:28;;;;;;;11.40;3.60;;;;;;;;;;5056493;28;20195;-56
2022/07/28 00:39:55;;;;;;;10.05;3.55;;;;;;;;;;5056853;28;20227;-49
2022/07/28 00:42:23;;;;;;;5.22;3.50;;;;;;;;;;5056366;28;20643;-52
2022/07/28 00:44:50;;;;;;;9.50;3.92;;;;;;;;;;5057033;28;20192;-48
2022/07/28 00:47:18;;;;;;;9.48;3.78;;;;;;;;;;5056672;28;20215;-51
2022/07/28 00:49:47;;;;;;;8.55;4.03;;;;;;;;;;5056688;28;20204;-55
2022/07/28 00:52:16;;;;;;;6.03;3.38;;;;;;;;;;5055449;28;20244;-52
2022/07/28 00:54:43;;;;;;;8.23;3.53;;;;;;;;;;5056497;28;20200;-54
2022/07/28 00:57:10;;;;;;;9.52;4.05;;;;;;;;;;5056102;28;20204;-50
2022/07/28 00:59:37;;;;;;;5.90;3.30;;;;;;;;;;5056174;28;20260;-50
2022/07/28 01:02:04;;;;;;;5.35;3.42;;;;;;;;;;5056541;28;20227;-52
2022/07/28 01:04:32;;;;;;;7.00;3.30;;;;;;;;;;5056134;28;20322;-55
2022/07/28 01:07:21;;;;;;;5.68;3.40;;;;;;;;;;5056266;28;20208;-49
2022/07/28 01:10:02;;;;;;;5.93;3.67;;;;;;;;;;5055213;28;20207;-53
2022/07/28 01:12:34;;;;;;;10.80;3.30;;;;;;;;;;5056374;28;20257;-50
2022/07/28 01:15:20;;;;;;;7.50;3.15;;;;;;;;;;5056118;28;20547;-53
2022/07/28 01:18:01;;;;;;;5.32;3.08;;;;;;;;;;5056100;28;20208;-52
2022/07/28 01:20:34;;;;;;;4.63;2.85;;;;;;;;;;5056338;28;20202;-56
2022/07/28 01:23:20;;;;;;;5.80;2.45;;;;;;;;;;5054871;28;20228;-57
2022/07/28 01:26:25;;;;;;;7.25;3.40;;;;;;;;;;5055309;28;20207;-52
2022/07/28 01:28:58;;;;;;;5.32;3.00;;;;;;;;;;5056056;28;20199;-49
2022/07/28 01:31:31;;;;;;;4.65;2.70;;;;;;;;;;5055789;28;20219;-55
2022/07/28 01:33:59;;;;;;;8.40;3.42;;;;;;;;;;5055574;28;20286;-49
2022/07/28 01:36:39;;;;;;;6.07;2.80;;;;;;;;;;5054559;28;20208;-50
2022/07/28 01:39:06;;;;;;;6.05;3.30;;;;;;;;;;5054581;28;20199;-53
2022/07/28 01:41:35;;;;;;;4.57;2.90;;;;;;;;;;5055733;28;20200;-55
2022/07/28 01:44:05;;;;;;;4.90;3.10;;;;;;;;;;5054812;28;20244;-52
2022/07/28 01:46:32;;;;;;;4.85;3.25;;;;;;;;;;5055277;28;20688;-49
2022/07/28 01:49:01;;;;;;;6.97;3.20;;;;;;;;;;5055375;28;20204;-49
2022/07/28 01:51:29;;;;;;;5.75;3.63;;;;;;;;;;5055139;28;20216;-53
2022/07/28 01:53:58;;;;;;;9.45;3.20;;;;;;;;;;5054150;28;20677;-49
2022/07/28 01:56:29;;;;;;;3.75;3.05;;;;;;;;;;5055427;28;20204;-49
2022/07/28 01:58:59;;;;;;;6.85;3.60;;;;;;;;;;5054130;28;20634;-56
2022/07/28 02:01:26;;;;;;;7.13;3.45;;;;;;;;;;5054128;28;20195;-52
2022/07/28 02:03:55;;;;;;;7.10;3.58;;;;;;;;;;5054332;28;20239;-49
2022/07/28 02:06:22;;;;;;;8.93;3.42;;;;;;;;;;5054010;28;20200;-52
2022/07/28 02:08:50;;;;;;;8.75;3.90;;;;;;;;;;5053788;28;20204;-50
2022/07/28 02:14:03;;;;;;;4.97;3.42;;;;;;;;;;5054687;28;20199;-53
2022/07/28 02:16:31;;;;;;;11.27;3.22;;;;;;;;;;5054859;28;20219;-50
2022/07/28 02:18:58;;;;;;;6.85;3.10;;;;;;;;;;5054580;28;20208;-50
2022/07/28 02:21:27;;;;;;;6.95;3.40;;;;;;;;;;5053692;28;20242;-51
2022/07/28 02:23:54;;;;;;;5.18;3.88;;;;;;;;;;5053475;28;20277;-50
2022/07/28 02:26:35;;;;;;;7.13;4.07;;;;;;;;;;5053783;28;20530;-51
2022/07/28 02:29:05;;;;;;;7.20;4.15;;;;;;;;;;5053540;28;20207;-54
2022/07/28 02:31:39;;;;;;;5.68;3.83;;;;;;;;;;5053493;28;20246;-49
2022/07/28 02:34:10;;;;;;;12.98;4.40;;;;;;;;;;5053494;28;20207;-53
2022/07/28 02:36:40;;;;;;;10.55;4.20;;;;;;;;;;5053354;28;20211;-51
2022/07/28 02:39:24;;;;;;;8.48;4.03;;;;;;;;;;5053588;28;20215;-53
2022/07/28 02:41:57;;;;;;;8.90;4.10;;;;;;;;;;5053536;28;20585;-55
2022/07/28 02:44:27;;;;;;;9.15;3.97;;;;;;;;;;5053334;28;20229;-50
2022/07/28 02:46:57;;;;;;;7.82;4.00;;;;;;;;;;5053701;28;20528;-52
2022/07/28 02:49:28;;;;;;;6.63;4.38;;;;;;;;;;5054732;28;20192;-56
2022/07/28 02:51:57;;;;;;;14.32;4.38;;;;;;;;;;5055437;28;20189;-50
2022/07/28 02:54:26;;;;;;;6.22;4.30;;;;;;;;;;5058523;28;20208;-50
2022/07/28 02:56:53;;;;;;;7.22;3.30;;;;;;;;;;5058382;28;20215;-52
2022/07/28 02:59:22;;;;;;;6.50;3.95;;;;;;;;;;5057079;28;20235;-54
2022/07/28 03:01:49;;;;;;;8.07;3.95;;;;;;;;;;5057398;28;20214;-56
2022/07/28 03:04:55;;;;;;;9.50;3.90;;;;;;;;;;5058119;28;20241;-52
2022/07/28 03:07:04;;;;;;;12.10;4.60;;;;;;;;;;5057935;28;20207;-51
2022/07/28 03:09:45;;;;;;;8.65;4.40;;;;;;;;;;5058001;28;20649;-53
2022/07/28 03:12:12;;;;;;;10.70;4.25;;;;;;;;;;5057965;28;20220;-52
2022/07/28 03:14:40;;;;;;;6.53;4.25;;;;;;;;;;5058097;28;20219;-57
2022/07/28 03:17:07;;;;;;;9.98;3.70;;;;;;;;;;5058150;28;20215;-49
2022/07/28 03:19:35;;;;;;;10.65;4.22;;;;;;;;;;5058213;28;20200;-52
2022/07/28 03:22:03;;;;;;;13.88;4.40;;;;;;;;;;5058057;28;20208;-56
2022/07/28 03:24:33;;;;;;;6.22;4.25;;;;;;;;;;5058413;28;20585;-50
2022/07/28 03:27:20;;;;;;;10.95;4.35;;;;;;;;;;5057863;28;20258;-52
2022/07/28 03:29:52;;;;;;;10.63;4.60;;;;;;;;;;5057346;28;20200;-53
2022/07/28 03:32:22;;;;;;;8.65;4.43;;;;;;;;;;5058170;28;20192;-54
2022/07/28 03:34:51;;;;;;;10.57;4.30;;;;;;;;;;5057990;28;20204;-53
2022/07/28 03:37:31;;;;;;;4.95;4.20;;;;;;;;;;5057466;28;20641;-54
2022/07/28 03:39:59;;;;;;;10.27;4.35;;;;;;;;;;5056926;28;20215;-57
2022/07/28 03:42:27;;;;;;;10.20;4.47;;;;;;;;;;5060623;28;20207;-55
2022/07/28 03:44:54;;;;;;;12.95;4.38;;;;;;;;;;5084415;28;20227;-57
2022/07/28 03:47:22;;;;;;;9.68;5.00;;;;;;;;;;5087044;28;20205;-55
2022/07/28 03:49:50;;;;;;;11.82;5.15;;;;;;;;;;5086748;28;20203;-57
2022/07/28 03:52:17;;;;;;;7.78;4.95;;;;;;;;;;5085080;28;20725;-53
2022/07/28 03:54:44;;;;;;;6.57;4.65;;;;;;;;;;5086244;28;20224;-50
2022/07/28 03:57:12;;;;;;;8.30;4.35;;;;;;;;;;5070249;28;20200;-51
2022/07/28 03:59:40;;;;;;;10.70;4.18;;;;;;;;;;5076698;28;20721;-55
2022/07/28 04:02:07;;;;;;;11.63;4.28;;;;;;;;;;5076091;28;20207;-56
2022/07/28 04:04:34;;;;;;;9.13;3.95;;;;;;;;;;5066759;28;20607;-56
2022/07/28 04:07:01;;;;;;;11.80;4.30;;;;;;;;;;5059345;28;20242;-51
2022/07/28 04:09:28;;;;;;;12.60;5.25;;;;;;;;;;5082303;28;20211;-53
2022/07/28 04:11:55;;;;;;;8.68;4.18;;;;;;;;;;5074648;28;20609;-57
2022/07/28 04:14:22;;;;;;;11.93;3.88;;;;;;;;;;5075116;28;20712;-57
2022/07/28 04:16:50;;;;;;;23.02;4.47;;;;;;;;;;5074873;28;20223;-54
2022/07/28 04:19:17;;;;;;;8.30;4.45;;;;;;;;;;5074955;28;20227;-51
2022/07/28 04:21:45;;;;;;;8.13;3.63;;;;;;;;;;5054483;28;20224;-54
2022/07/28 04:24:12;;;;;;;10.93;4.63;;;;;;;;;;5087441;28;20255;-51
2022/07/28 04:26:39;;;;;;;7.43;3.72;;;;;;;;;;5054996;28;20231;-54
2022/07/28 04:29:10;;;;;;;13.13;3.92;;;;;;;;;;5054764;28;20785;-54
2022/07/28 04:31:37;;;;;;;8.15;3.67;;;;;;;;;;5054647;28;20564;-54
2022/07/28 04:34:04;;;;;;;7.10;3.33;;;;;;;;;;5054985;28;20227;-57
2022/07/28 04:36:31;;;;;;;9.68;3.13;;;;;;;;;;5054378;28;20224;-56
2022/07/28 04:38:59;;;;;;;11.50;3.67;;;;;;;;;;5054400;28;20228;-54
2022/07/28 04:41:26;;;;;;;13.82;3.47;;;;;;;;;;5054735;28;20254;-55
2022/07/28 04:43:53;;;;;;;12.48;3.50;;;;;;;;;;5054712;28;20235;-54
2022/07/28 04:46:20;;;;;;;11.63;3.50;;;;;;;;;;5061402;28;20214;-55
2022/07/28 04:48:47;;;;;;;11.82;3.35;;;;;;;;;;5085647;28;20234;-55
2022/07/28 04:51:14;;;;;;;8.82;3.30;;;;;;;;;;5088111;28;20701;-53
2022/07/28 04:53:41;;;;;;;14.13;3.53;;;;;;;;;;5093770;28;20695;-55
2022/07/28 04:56:08;;;;;;;10.90;3.78;;;;;;;;;;5092985;28;20230;-49
2022/07/28 04:58:35;;;;;;;8.27;3.35;;;;;;;;;;5094061;28;20227;-55
2022/07/28 05:01:04;;;;;;;16.02;4.93;;;;;;;;;;5047931;28;1339854;-56
2022/07/28 05:03:31;;;;;;;10.30;3.30;;;;;;;;;;5095394;28;20745;-53
2022/07/28 05:06:02;;;;;;;6.32;2.55;;;;;;;;;;5096249;28;20195;-53
2022/07/28 05:08:29;;;;;;;8.60;3.03;;;;;;;;;;5095524;28;20203;-56
2022/07/28 05:10:56;;;;;;;12.18;3.05;;;;;;;;;;5094623;28;20206;-49
2022/07/28 05:13:23;;;;;;;12.30;2.90;;;;;;;;;;5094903;28;20663;-50
2022/07/28 05:15:57;;;;;;;8.77;3.25;;;;;;;;;;5094985;28;20194;-51
2022/07/28 05:18:24;;;;;;;9.77;3.17;;;;;;;;;;5096440;28;20222;-58
2022/07/28 05:20:51;;;;;;;7.20;2.88;;;;;;;;;;5084247;28;20199;-57
2022/07/28 05:23:18;;;;;;;14.35;3.22;;;;;;;;;;5075701;28;20215;-54
2022/07/28 05:25:45;;;;;;;12.85;3.10;;;;;;;;;;5075848;28;20285;-53
2022/07/28 05:28:12;;;;;;;6.68;3.08;;;;;;;;;;5075698;28;20206;-53
2022/07/28 05:30:39;;;;;;;7.60;3.30;;;;;;;;;;5075736;28;20212;-59
2022/07/28 05:33:06;;;;;;;11.48;3.38;;;;;;;;;;5075715;28;20207;-52
2022/07/28 05:35:33;;;;;;;7.50;2.88;;;;;;;;;;5075497;28;20214;-55
2022/07/28 05:38:00;;;;;;;6.55;2.53;;;;;;;;;;5076204;28;20203;-52
2022/07/28 05:40:28;;;;;;;4.70;2.33;;;;;;;;;;5075551;28;20208;-50
2022/07/28 05:42:55;;;;;;;10.25;2.80;;;;;;;;;;5075196;28;20633;-53
2022/07/28 05:45:23;;;;;;;7.93;2.55;;;;;;;;;;5075049;28;20237;-57
2022/07/28 05:47:51;;;;;;;9.18;2.97;;;;;;;;;;5075368;28;20200;-54
2022/07/28 05:50:23;;;;;;;6.63;2.35;;;;;;;;;;5074380;28;20220;-58
2022/07/28 05:52:50;;;;;;;8.05;2.97;;;;;;;;;;5074347;28;20217;-58
2022/07/28 05:55:18;;;;;;;7.20;2.25;;;;;;;;;;5074581;28;20200;-58
2022/07/28 05:57:45;;;;;;;11.50;2.40;;;;;;;;;;5075248;28;20207;-59
2022/07/28 06:00:15;;;;;;;12.15;2.38;;;;;;;;;;5073076;28;20292;-56
2022/07/28 06:02:47;;;;;;;5.80;2.25;;;;;;;;;;5073396;28;20199;-59
2022/07/28 06:05:17;;;;;;;8.93;2.50;;;;;;;;;;5074603;28;20234;-59
2022/07/28 06:07:45;;;;;;;7.57;2.40;;;;;;;;;;5075028;28;20226;-59
2022/07/28 06:10:15;;;;;;;8.77;2.20;;;;;;;;;;5074725;28;20249;-59
2022/07/28 06:12:44;;;;;;;14.48;2.40;;;;;;;;;;5075230;28;20218;-59
2022/07/28 06:15:17;;;;;;;7.35;2.30;;;;;;;;;;5074465;28;20207;-59
2022/07/28 06:17:44;;;;;;;6.45;2.08;;;;;;;;;;5074997;28;20261;-59
2022/07/28 06:20:12;;;;;;;9.60;2.13;;;;;;;;;;5077713;28;20649;-58
2022/07/28 06:22:51;;;;;;;6.55;1.88;;;;;;;;;;5054221;28;20204;-59
2022/07/28 06:25:26;;;;;;;3.20;1.70;;;;;;;;;;5054777;28;20212;-59
2022/07/28 06:27:58;;;;;;;5.53;1.77;;;;;;;;;;5054798;28;20212;-59
2022/07/28 06:30:26;;;;;;;6.22;1.60;;;;;;;;;;5054769;28;20196;-57
2022/07/28 06:32:53;;;;;;;5.93;1.85;;;;;;;;;;5054474;28;20196;-57
2022/07/28 06:35:20;;;;;;;6.35;1.50;;;;;;;;;;5054699;28;20211;-57
2022/07/28 06:37:49;;;;;;;3.92;1.50;;;;;;;;;;5054450;28;20203;-55
2022/07/28 06:40:18;;;;;;;6.45;1.80;;;;;;;;;;5054389;28;20195;-57
2022/07/28 06:42:45;;;;;;;5.70;1.75;;;;;;;;;;5054411;28;20200;-58
2022/07/28 06:45:14;;;;;;;3.78;1.60;;;;;;;;;;5086682;28;20223;-57
2022/07/28 06:47:51;;;;;;;9.90;1.88;;;;;;;;;;5054185;28;20192;-58
2022/07/28 06:50:19;;;;;;;7.25;1.63;;;;;;;;;;5054605;28;20572;-59
2022/07/28 06:52:53;;;;;;;8.48;1.88;;;;;;;;;;5054707;28;20216;-59
2022/07/28 06:55:21;;;;;;;5.50;1.73;;;;;;;;;;5054053;28;20219;-59
2022/07/28 06:57:48;;;;;;;5.75;1.70;;;;;;;;;;5054681;28;20290;-59
2022/07/28 07:00:15;;;;;;;6.40;1.83;;;;;;;;;;5054102;28;20235;-59
2022/07/28 07:02:42;;;;;;;4.93;1.30;;;;;;;;;;5053949;28;20558;-57
2022/07/28 07:05:11;;;;;;;5.25;1.42;;;;;;;;;;5054256;28;20250;-59
2022/07/28 07:07:38;;;;;;;3.20;1.40;;;;;;;;;;5054148;28;20635;-59
2022/07/28 07:10:10;;;;;;;4.15;1.30;;;;;;;;;;5063848;28;20211;-58
2022/07/28 07:12:37;;;;;;;3.10;1.45;;;;;;;;;;5073963;28;20192;-59
2022/07/28 07:15:05;;;;;;;7.13;1.23;;;;;;;;;;5073610;28;20210;-59
2022/07/28 07:17:32;;;;;;;4.43;1.38;;;;;;;;;;5073060;28;20206;-60
2022/07/28 07:19:59;;;;;;;3.92;1.40;;;;;;;;;;5073922;28;20258;-59
2022/07/28 07:22:26;;;;;;;2.97;1.15;;;;;;;;;;5073311;28;20196;-59
2022/07/28 07:24:53;;;;;;;6.43;1.65;;;;;;;;;;5073513;28;20223;-57
2022/07/28 07:27:23;;;;;;;2.85;0.90;;;;;;;;;;5074078;28;20607;-57
2022/07/28 07:29:50;;;;;;;2.90;1.10;;;;;;;;;;5073807;28;20195;-59
2022/07/28 07:32:17;;;;;;;6.30;1.25;;;;;;;;;;5073854;28;20196;-59
2022/07/28 07:34:44;;;;;;;2.45;1.27;;;;;;;;;;5073420;28;20552;-56
2022/07/28 07:37:13;;;;;;;6.38;1.30;;;;;;;;;;5073309;28;20545;-59
2022/07/28 07:39:40;;;;;;;5.78;1.13;;;;;;;;;;5077258;28;20207;-59
2022/07/28 07:42:07;;;;;;;4.95;1.65;;;;;;;;;;5076863;28;20216;-58
2022/07/28 07:44:35;;;;;;;5.88;1.30;;;;;;;;;;5077284;28;20219;-59
2022/07/28 07:47:02;;;;;;;5.28;1.40;;;;;;;;;;5076741;28;20203;-56
2022/07/28 07:49:29;;;;;;;4.55;1.50;;;;;;;;;;5077156;28;20291;-57
2022/07/28 07:52:12;;;;;;;1.90;0.90;;;;;;;;;;5061127;28;20191;-59
2022/07/28 07:54:40;;;;;;;3.35;1.23;;;;;;;;;;5076907;28;20202;-59
2022/07/28 07:57:09;;;;;;;4.43;1.25;;;;;;;;;;5076240;28;20641;-57
2022/07/28 07:59:36;;;;;;;4.43;1.48;;;;;;;;;;5076747;28;20246;-58
2022/07/28 08:02:04;;;;;;;3.78;1.30;;;;;;;;;;5076344;28;20265;-58
2022/07/28 08:04:31;;;;;;;3.47;1.35;;;;;;;;;;5076916;28;20548;-59
2022/07/28 08:07:05;;;;;;;2.95;1.17;;;;;;;;;;5076894;28;20215;-58
2022/07/28 08:09:33;;;;;;;6.10;1.50;;;;;;;;;;5076427;28;20609;-58
2022/07/28 08:12:00;;;;;;;4.18;1.20;;;;;;;;;;5077059;28;20215;-58
2022/07/28 08:14:27;;;;;;;1.85;1.00;;;;;;;;;;5076661;28;20530;-59
2022/07/28 08:16:58;;;;;;;2.60;1.30;;;;;;;;;;5070737;28;20250;-59
2022/07/28 08:19:25;;;;;;;4.22;1.35;;;;;;;;;;5076458;28;20284;-58
2022/07/28 08:21:54;;;;;;;5.18;1.40;;;;;;;;;;5076026;28;20223;-59
2022/07/28 08:24:21;;;;;;;7.47;1.40;;;;;;;;;;5055862;28;20228;-59
2022/07/28 08:27:00;;;;;;;3.45;1.35;;;;;;;;;;5072538;28;20226;-56
2022/07/28 08:29:27;;;;;;;3.08;1.30;;;;;;;;;;5075304;28;20235;-57
2022/07/28 08:31:55;;;;;;;3.50;1.48;;;;;;;;;;5075161;28;20280;-58
2022/07/28 08:34:22;;;;;;;7.43;1.25;;;;;;;;;;5075793;28;20227;-57
2022/07/28 08:37:01;;;;;;;2.72;1.10;;;;;;;;;;5075474;28;20247;-57
2022/07/28 08:39:29;;;;;;;5.35;1.30;;;;;;;;;;5075823;28;20231;-56
2022/07/28 08:42:17;;;;;;;9.10;1.45;;;;;;;;;;5075488;28;20233;-57
2022/07/28 08:44:54;;;;;;;4.95;1.20;;;;;;;;;;5075591;28;20230;-57
2022/07/28 08:47:21;;;;;;;3.40;1.10;;;;;;;;;;5073737;28;20231;-57
2022/07/28 08:49:49;;;;;;;3.17;1.20;;;;;;;;;;5074163;28;20230;-57
2022/07/28 08:52:19;;;;;;;3.05;1.23;;;;;;;;;;5074358;28;20276;-57
2022/07/28 08:54:47;;;;;;;6.80;1.30;;;;;;;;;;5075203;28;20701;-57
2022/07/28 08:57:25;;;;;;;3.15;0.98;;;;;;;;;;5075181;28;20553;-57
2022/07/28 08:59:53;;;;;;;3.75;1.25;;;;;;;;;;5074432;28;20242;-57
2022/07/28 09:02:21;;;;;;;3.85;1.20;;;;;;;;;;5073270;28;20720;-56
2022/07/28 09:04:49;;;;;;;2.03;1.20;;;;;;;;;;5074554;28;20242;-57
2022/07/28 09:07:17;;;;;;;5.90;1.48;;;;;;;;;;5075017;28;20761;-57
2022/07/28 09:09:47;;;;;;;4.93;1.20;;;;;;;;;;5074638;28;20658;-58
2022/07/28 09:12:14;;;;;;;4.22;1.25;;;;;;;;;;5074949;28;20313;-58
2022/07/28 09:14:41;;;;;;;2.30;1.20;;;;;;;;;;5074742;28;20227;-58
2022/07/28 09:17:08;;;;;;;7.22;1.30;;;;;;;;;;5073400;28;20268;-57
2022/07/28 09:19:38;;;;;;;6.82;1.25;;;;;;;;;;5074810;28;20228;-58
2022/07/28 09:22:06;;;;;;;6.47;1.65;;;;;;;;;;5075223;28;20702;-57
2022/07/28 09:24:43;;;;;;;4.10;1.30;;;;;;;;;;5074657;28;20557;-58
2022/07/28 09:27:12;;;;;;;6.40;1.40;;;;;;;;;;5074457;28;20715;-55
2022/07/28 09:29:44;;;;;;;4.30;1.13;;;;;;;;;;5074310;28;20280;-56
2022/07/28 09:32:16;;;;;;;3.58;1.30;;;;;;;;;;5073640;28;20715;-55
2022/07/28 09:34:44;;;;;;;3.55;1.50;;;;;;;;;;5073408;28;20231;-56
2022/07/28 09:37:24;;;;;;;5.13;1.20;;;;;;;;;;5074562;28;20219;-57
2022/07/28 09:39:57;;;;;;;4.05;1.13;;;;;;;;;;5074532;28;20231;-58
2022/07/28 09:42:25;;;;;;;3.03;1.25;;;;;;;;;;5074206;28;20712;-58
2022/07/28 09:45:04;;;;;;;4.07;1.52;;;;;;;;;;5074161;28;20242;-57
2022/07/28 09:48:07;;;;;;;4.60;1.20;;;;;;;;;;5074440;28;20302;-59
2022/07/28 09:50:34;;;;;;;6.15;1.45;;;;;;;;;;5074016;28;20286;-58
2022/07/28 09:53:22;;;;;;;3.25;1.42;;;;;;;;;;5074231;28;20231;-57
2022/07/28 09:56:00;;;;;;;6.38;1.33;;;;;;;;;;5073906;28;20313;-58
2022/07/28 09:58:28;;;;;;;6.78;1.20;;;;;;;;;;5073988;28;20661;-57
2022/07/28 10:01:11;;;;;;;2.83;1.10;;;;;;;;;;5073101;28;20243;-57
2022/07/28 10:03:40;;;;;;;5.82;1.10;;;;;;;;;;5074374;28;20234;-57
2022/07/28 10:06:13;;;;;;;4.05;1.00;;;;;;;;;;5073495;28;20685;-57
2022/07/28 10:08:48;;;;;;;5.50;1.67;;;;;;;;;;5074289;28;20223;-58
2022/07/28 10:11:17;;;;;;;6.32;1.23;;;;;;;;;;5073653;28;20629;-58
2022/07/28 10:13:53;;;;;;;4.05;1.17;;;;;;;;;;5072676;28;20223;-58
2022/07/28 10:16:21;;;;;;;9.18;1.40;;;;;;;;;;5072966;28;20234;-57
2022/07/28 10:18:48;;;;;;;4.45;1.58;;;;;;;;;;5074090;28;20244;-57
2022/07/28 10:21:17;;;;;;;1.67;0.93;;;;;;;;;;5073715;28;20277;-58
2022/07/28 10:23:47;;;;;;;2.75;1.20;;;;;;;;;;5073963;28;20231;-58
2022/07/28 10:26:15;;;;;;;9.40;1.20;;;;;;;;;;5073587;28;20231;-57
2022/07/28 10:28:47;;;;;;;3.25;1.40;;;;;;;;;;5074104;28;20619;-58
2022/07/28 10:31:40;;;;;;;3.85;1.58;;;;;;;;;;5072841;28;20234;-57
2022/07/28 10:34:09;;;;;;;4.13;1.38;;;;;;;;;;5067134;28;20550;-58
2022/07/28 10:36:43;;;;;;;2.50;1.13;;;;;;;;;;5072960;28;20242;-59
2022/07/28 10:39:22;;;;;;;3.33;1.35;;;;;;;;;;5073780;28;20238;-57
2022/07/28 10:41:49;;;;;;;3.15;1.08;;;;;;;;;;5073677;28;20234;-57
2022/07/28 10:44:18;;;;;;;5.97;1.17;;;;;;;;;;5073431;28;20318;-57
2022/07/28 10:46:46;;;;;;;6.35;1.45;;;;;;;;;;5073620;28;20266;-56
2022/07/28 10:49:13;;;;;;;3.22;0.98;;;;;;;;;;5073390;28;20231;-57
2022/07/28 10:51:45;;;;;;;4.72;1.48;;;;;;;;;;5073299;28;20231;-58
2022/07/28 10:54:36;;;;;;;3.53;1.02;;;;;;;;;;5072676;28;20231;-59
2022/07/28 10:57:09;;;;;;;2.80;0.95;;;;;;;;;;5072596;28;20231;-59
2022/07/28 10:59:43;;;;;;;3.42;1.20;;;;;;;;;;5073074;28;20689;-59
2022/07/28 11:02:46;;;;;;;7.80;1.10;;;;;;;;;;5072859;28;20231;-59
2022/07/28 11:05:39;;;;;;;3.40;1.02;;;;;;;;;;5073485;28;20257;-59
2022/07/28 11:08:08;;;;;;;2.50;1.13;;;;;;;;;;5073334;28;20235;-58
2022/07/28 11:10:47;;;;;;;3.65;1.35;;;;;;;;;;5073564;28;20234;-60
2022/07/28 11:13:27;;;;;;;3.28;1.13;;;;;;;;;;5074583;28;20669;-58
2022/07/28 11:16:14;;;;;;;2.92;0.85;;;;;;;;;;5076516;28;20235;-60
2022/07/28 11:19:06;;;;;;;3.83;0.90;;;;;;;;;;5077049;28;20245;-59
2022/07/28 11:22:20;;;;;;;3.38;1.05;;;;;;;;;;5077120;28;20230;-59
2022/07/28 11:24:57;;;;;;;3.65;0.90;;;;;;;;;;5077350;28;20230;-59
2022/07/28 11:27:39;;;;;;;2.83;0.98;;;;;;;;;;5076845;28;20227;-59
2022/07/28 11:30:34;;;;;;;2.95;1.05;;;;;;;;;;5076155;28;20285;-59
2022/07/28 11:33:03;;;;;;;3.45;1.10;;;;;;;;;;5076472;28;20231;-59
2022/07/28 11:35:52;;;;;;;4.40;1.20;;;;;;;;;;5076830;28;20227;-60
2022/07/28 11:38:20;;;;;;;2.50;0.70;;;;;;;;;;5092434;27;20237;-59
2022/07/28 11:40:50;;;;;;;2.13;1.13;;;;;;;;;;5096502;28;20242;-58
2022/07/28 11:43:24;;;;;;;5.18;1.08;;;;;;;;;;5097368;28;20534;-59
2022/07/28 11:46:04;;;;;;;3.40;0.90;;;;;;;;;;5077699;28;20227;-58
2022/07/28 11:48:41;;;;;;;3.22;1.05;;;;;;;;;;5077658;28;20245;-59
2022/07/28 11:51:09;;;;;;;2.33;0.90;;;;;;;;;;5077508;28;20615;-59
2022/07/28 11:53:51;;;;;;;5.05;0.88;;;;;;;;;;5077630;28;20207;-58
2022/07/28 11:56:28;;;;;;;3.50;1.00;;;;;;;;;;5077633;28;20253;-59
2022/07/28 11:58:59;;;;;;;3.03;1.00;;;;;;;;;;5076933;28;20198;-59
2022/07/28 12:01:27;;;;;;;4.30;1.27;;;;;;;;;;5077714;28;20265;-58
2022/07/28 12:03:58;;;;;;;5.72;1.15;;;;;;;;;;5077114;28;20635;-59
2022/07/28 12:06:37;;;;;;;3.13;0.95;;;;;;;;;;5077585;28;20243;-59
2022/07/28 12:09:06;;;;;;;2.47;1.05;;;;;;;;;;5077487;28;20514;-59
2022/07/28 12:11:35;;;;;;;5.63;1.00;;;;;;;;;;5077272;28;20211;-59
2022/07/28 12:14:15;;;;;;;4.28;0.88;;;;;;;;;;5077096;28;20203;-59
2022/07/28 12:16:44;;;;;;;3.97;0.75;;;;;;;;;;5077138;28;20195;-59
2022/07/28 12:19:16;;;;;;;2.50;1.05;;;;;;;;;;5076973;28;20278;-59
2022/07/28 12:21:46;;;;;;;1.42;0.80;;;;;;;;;;5076616;28;20626;-59
2022/07/28 12:24:26;;;;;;;4.60;0.85;;;;;;;;;;5076260;28;20184;-58
2022/07/28 12:26:54;;;;;;;3.17;1.02;;;;;;;;;;5074934;28;20725;-59
2022/07/28 12:29:22;;;;;;;2.33;0.77;;;;;;;;;;5077011;28;20195;-59
2022/07/28 12:31:55;;;;;;;5.25;1.00;;;;;;;;;;5075088;28;20223;-59
2022/07/28 12:34:23;;;;;;;2.38;0.95;;;;;;;;;;5063316;28;20234;-59
2022/07/28 12:37:03;;;;;;;3.55;1.05;;;;;;;;;;5058717;28;20246;-59
2022/07/28 12:39:33;;;;;;;1.38;0.70;;;;;;;;;;5074372;28;20229;-60
2022/07/28 12:42:05;;;;;;;2.00;0.90;;;;;;;;;;5080978;28;20219;-59
2022/07/28 12:44:38;;;;;;;3.28;1.05;;;;;;;;;;5082774;28;20227;-60
2022/07/28 12:47:06;;;;;;;2.88;0.80;;;;;;;;;;5085512;28;20234;-59
2022/07/28 12:49:35;;;;;;;2.03;0.98;;;;;;;;;;5083321;28;20230;-58
2022/07/28 12:52:18;;;;;;;4.10;1.00;;;;;;;;;;5089929;28;20239;-59
2022/07/28 12:54:50;;;;;;;2.38;0.90;;;;;;;;;;5085994;28;20257;-58
2022/07/28 12:57:40;;;;;;;1.35;0.80;;;;;;;;;;5084863;28;20660;-59
2022/07/28 13:00:17;;;;;;;2.70;0.88;;;;;;;;;;5080516;28;20239;-59
2022/07/28 13:02:46;;;;;;;4.10;0.88;;;;;;;;;;5086227;28;20227;-59
2022/07/28 13:05:26;;;;;;;1.85;0.65;;;;;;;;;;5083579;28;20245;-58
2022/07/28 13:08:04;;;;;;;5.28;1.20;;;;;;;;;;5084456;28;20276;-59
2022/07/28 13:10:31;;;;;;;4.55;0.82;;;;;;;;;;5118416;27;20674;-60
2022/07/28 13:13:08;;;;;;;1.30;0.60;;;;;;;;;;5095235;28;20544;-60
2022/07/28 13:15:35;;;;;;;4.88;0.88;;;;;;;;;;5082915;28;20665;-59
2022/07/28 13:18:03;;;;;;;1.95;0.80;;;;;;;;;;5084995;28;20238;-59
2022/07/28 13:20:35;;;;;;;3.00;0.80;;;;;;;;;;5083461;28;20227;-58
2022/07/28 13:23:02;;;;;;;3.28;0.88;;;;;;;;;;5083886;28;20246;-59
2022/07/28 13:25:29;;;;;;;1.77;1.00;;;;;;;;;;5085553;28;20219;-58
2022/07/28 13:27:57;;;;;;;4.03;0.88;;;;;;;;;;5079248;28;20219;-59
2022/07/28 13:30:24;;;;;;;2.92;0.80;;;;;;;;;;5073689;28;20227;-59
2022/07/28 13:32:53;;;;;;;1.70;0.90;;;;;;;;;;5073808;28;20224;-59
2022/07/28 13:35:21;;;;;;;5.75;0.90;;;;;;;;;;5070187;28;20215;-59
2022/07/28 13:37:48;;;;;;;3.60;0.80;;;;;;;;;;5081018;28;20322;-59
2022/07/28 13:40:16;;;;;;;7.75;0.73;;;;;;;;;;5088987;28;20226;-59
2022/07/28 13:42:43;;;;;;;3.67;0.93;;;;;;;;;;5083561;28;20214;-58
2022/07/28 13:45:22;;;;;;;1.15;0.70;;;;;;;;;;5085764;28;20222;-59
2022/07/28 13:47:49;;;;;;;3.00;0.90;;;;;;;;;;5094456;28;20661;-59
2022/07/28 13:50:19;;;;;;;2.47;0.70;;;;;;;;;;5084552;28;20227;-59
2022/07/28 13:52:47;;;;;;;2.63;0.60;;;;;;;;;;5074143;28;20223;-59
2022/07/28 13:55:14;;;;;;;1.65;0.73;;;;;;;;;;5074387;28;20219;-59
2022/07/28 13:57:46;;;;;;;4.25;0.80;;;;;;;;;;5072688;28;20612;-60
2022/07/28 14:00:16;;;;;;;2.58;0.80;;;;;;;;;;5073901;28;20249;-61
2022/07/28 14:02:47;;;;;;;1.38;0.70;;;;;;;;;;5074358;28;20219;-60
2022/07/28 14:05:15;;;;;;;2.88;0.98;;;;;;;;;;5073623;28;20533;-60
2022/07/28 14:07:42;;;;;;;1.45;0.60;;;;;;;;;;5074103;28;20239;-59
2022/07/28 14:10:15;;;;;;;7.93;1.23;;;;;;;;;;5074289;28;20223;-60
2022/07/28 14:12:42;;;;;;;2.75;0.80;;;;;;;;;;5073716;28;20227;-57
2022/07/28 14:15:12;;;;;;;2.33;0.63;;;;;;;;;;5074092;28;20306;-55
2022/07/28 14:17:39;;;;;;;1.80;0.82;;;;;;;;;;5073600;28;20281;-61
2022/07/28 14:20:15;;;;;;;3.35;0.80;;;;;;;;;;5073145;28;20231;-60
2022/07/28 14:22:43;;;;;;;4.45;0.82;;;;;;;;;;5073919;28;20322;-58
2022/07/28 14:25:11;;;;;;;6.05;0.90;;;;;;;;;;5074109;28;20235;-59
2022/07/28 14:27:48;;;;;;;3.05;1.13;;;;;;;;;;5073528;28;20734;-58
2022/07/28 14:30:15;;;;;;;3.05;1.00;;;;;;;;;;5073683;28;20219;-59
2022/07/28 14:32:42;;;;;;;3.47;1.20;;;;;;;;;;5073874;28;20281;-56
2022/07/28 14:35:09;;;;;;;5.78;0.82;;;;;;;;;;5073010;28;20230;-59
2022/07/28 14:37:36;;;;;;;4.25;0.77;;;;;;;;;;5082009;28;20242;-59
2022/07/28 14:40:24;;;;;;;2.70;0.90;;;;;;;;;;5080987;27;20669;-58
2022/07/28 14:42:51;;;;;;;1.48;0.75;;;;;;;;;;5073444;28;20230;-58
2022/07/28 14:45:18;;;;;;;1.33;0.65;;;;;;;;;;5073140;28;20227;-59
2022/07/28 14:47:45;;;;;;;1.50;0.70;;;;;;;;;;5075114;28;20242;-51
2022/07/28 14:50:12;;;;;;;2.72;0.80;;;;;;;;;;5077513;28;20227;-56
2022/07/28 14:52:39;;;;;;;1.00;0.68;;;;;;;;;;5077950;28;20226;-59
2022/07/28 14:55:11;;;;;;;3.60;0.75;;;;;;;;;;5077840;28;20242;-58
2022/07/28 14:57:39;;;;;;;2.10;0.70;;;;;;;;;;5077529;28;20229;-58
2022/07/28 15:00:22;;;;;;;2.03;0.80;;;;;;;;;;5076958;28;20239;-58
2022/07/28 15:02:51;;;;;;;2.53;1.08;;;;;;;;;;5077239;28;20666;-59
2022/07/28 15:05:19;;;;;;;2.60;0.90;;;;;;;;;;5077321;28;20227;-55